sensor_id;sensor_type;location;lat;lon;timestamp;P1;durP1;ratioP1;P2;durP2;ratioP2
76574;SDS011;65439;50.948;6.988;2023-08-06T00:00:22;6.45;;;4.10;;
76574;SDS011;65439;50.948;6.988;2023-08-06T00:02:48;4.97;;;4.40;;
76574;SDS011;65439;50.948;6.988;2023-08-06T00:05:13;7.00;;;4.60;;
76574;SDS011;65439;50.948;6.988;2023-08-06T00:07:42;6.22;;;4.82;;
76574;SDS011;65439;50.948;6.988;2023-08-06T00:10:08;5.72;;;3.97;;
76574;SDS011;65439;50.948;6.988;2023-08-06T00:12:33;5.63;;;4.65;;
76574;SDS011;65439;50.948;6.988;2023-08-06T00:14:59;6.20;;;3.83;;
76574;SDS011;65439;50.948;6.988;2023-08-06T00:17:24;6.17;;;4.47;;
76574;SDS011;65439;50.948;6.988;2023-08-06T00:19:49;5.07;;;4.07;;
76574;SDS011;65439;50.948;6.988;2023-08-06T00:22:14;5.03;;;3.77;;
76574;SDS011;65439;50.948;6.988;2023-08-06T00:24:40;5.53;;;3.45;;
76574;SDS011;65439;50.948;6.988;2023-08-06T00:27:05;5.10;;;4.30;;
76574;SDS011;65439;50.948;6.988;2023-08-06T00:29:30;5.72;;;4.05;;
76574;SDS011;65439;50.948;6.988;2023-08-06T00:31:56;7.90;;;5.07;;
76574;SDS011;65439;50.948;6.988;2023-08-06T00:34:21;8.05;;;4.55;;
76574;SDS011;65439;50.948;6.988;2023-08-06T00:36:46;5.67;;;5.03;;
76574;SDS011;65439;50.948;6.988;2023-08-06T00:39:12;7.22;;;4.63;;
76574;SDS011;65439;50.948;6.988;2023-08-06T00:41:37;5.63;;;4.60;;
76574;SDS011;65439;50.948;6.988;2023-08-06T00:44:03;9.40;;;5.30;;
76574;SDS011;65439;50.948;6.988;2023-08-06T00:46:28;5.82;;;4.50;;
76574;SDS011;65439;50.948;6.988;2023-08-06T00:48:55;6.63;;;4.50;;
76574;SDS011;65439;50.948;6.988;2023-08-06T00:51:20;5.88;;;4.95;;
76574;SDS011;65439;50.948;6.988;2023-08-06T00:53:46;6.22;;;4.50;;
76574;SDS011;65439;50.948;6.988;2023-08-06T00:56:12;8.55;;;5.35;;
76574;SDS011;65439;50.948;6.988;2023-08-06T00:58:37;6.50;;;4.97;;
76574;SDS011;65439;50.948;6.988;2023-08-06T01:01:03;6.97;;;5.72;;
76574;SDS011;65439;50.948;6.988;2023-08-06T01:03:28;8.50;;;4.93;;
76574;SDS011;65439;50.948;6.988;2023-08-06T01:05:54;7.00;;;4.57;;
76574;SDS011;65439;50.948;6.988;2023-08-06T01:11:15;6.18;;;3.95;;
76574;SDS011;65439;50.948;6.988;2023-08-06T01:13:50;6.95;;;4.72;;
76574;SDS011;65439;50.948;6.988;2023-08-06T01:16:20;6.30;;;4.70;;
76574;SDS011;65439;50.948;6.988;2023-08-06T01:18:49;7.32;;;4.97;;
76574;SDS011;65439;50.948;6.988;2023-08-06T01:21:17;6.80;;;5.50;;
76574;SDS011;65439;50.948;6.988;2023-08-06T01:23:44;6.45;;;4.57;;
76574;SDS011;65439;50.948;6.988;2023-08-06T01:26:23;7.82;;;4.68;;
76574;SDS011;65439;50.948;6.988;2023-08-06T01:28:59;7.20;;;5.20;;
76574;SDS011;65439;50.948;6.988;2023-08-06T01:31:27;11.63;;;5.05;;
76574;SDS011;65439;50.948;6.988;2023-08-06T01:33:55;5.30;;;4.22;;
76574;SDS011;65439;50.948;6.988;2023-08-06T01:36:21;8.32;;;5.55;;
76574;SDS011;65439;50.948;6.988;2023-08-06T01:38:48;8.15;;;4.75;;
76574;SDS011;65439;50.948;6.988;2023-08-06T01:41:13;6.40;;;5.60;;
76574;SDS011;65439;50.948;6.988;2023-08-06T01:43:38;6.60;;;4.53;;
76574;SDS011;65439;50.948;6.988;2023-08-06T01:46:04;5.17;;;4.67;;
76574;SDS011;65439;50.948;6.988;2023-08-06T01:48:29;8.02;;;4.95;;
76574;SDS011;65439;50.948;6.988;2023-08-06T01:50:54;6.30;;;4.23;;
76574;SDS011;65439;50.948;6.988;2023-08-06T01:53:20;7.63;;;4.90;;
76574;SDS011;65439;50.948;6.988;2023-08-06T01:55:48;5.77;;;4.73;;
76574;SDS011;65439;50.948;6.988;2023-08-06T01:58:14;5.72;;;4.63;;
76574;SDS011;65439;50.948;6.988;2023-08-06T02:00:40;5.68;;;5.03;;
76574;SDS011;65439;50.948;6.988;2023-08-06T02:03:05;5.30;;;4.50;;
76574;SDS011;65439;50.948;6.988;2023-08-06T02:05:30;8.67;;;4.77;;
76574;SDS011;65439;50.948;6.988;2023-08-06T02:07:56;9.83;;;5.20;;
76574;SDS011;65439;50.948;6.988;2023-08-06T02:10:21;5.77;;;4.33;;
76574;SDS011;65439;50.948;6.988;2023-08-06T02:12:46;6.17;;;4.43;;
76574;SDS011;65439;50.948;6.988;2023-08-06T02:15:12;5.47;;;4.77;;
76574;SDS011;65439;50.948;6.988;2023-08-06T02:17:37;5.93;;;4.50;;
76574;SDS011;65439;50.948;6.988;2023-08-06T02:20:02;5.63;;;4.63;;
76574;SDS011;65439;50.948;6.988;2023-08-06T02:22:28;6.05;;;4.53;;
76574;SDS011;65439;50.948;6.988;2023-08-06T02:24:53;6.93;;;5.10;;
76574;SDS011;65439;50.948;6.988;2023-08-06T02:27:18;7.57;;;4.30;;
76574;SDS011;65439;50.948;6.988;2023-08-06T02:29:44;6.50;;;5.90;;
76574;SDS011;65439;50.948;6.988;2023-08-06T02:32:09;6.28;;;5.03;;
76574;SDS011;65439;50.948;6.988;2023-08-06T02:34:35;7.20;;;4.70;;
76574;SDS011;65439;50.948;6.988;2023-08-06T02:37:00;6.07;;;4.37;;
76574;SDS011;65439;50.948;6.988;2023-08-06T02:39:25;6.77;;;4.60;;
76574;SDS011;65439;50.948;6.988;2023-08-06T02:41:51;5.90;;;4.53;;
76574;SDS011;65439;50.948;6.988;2023-08-06T02:44:16;6.60;;;4.80;;
76574;SDS011;65439;50.948;6.988;2023-08-06T02:46:41;7.00;;;4.40;;
76574;SDS011;65439;50.948;6.988;2023-08-06T02:49:06;6.30;;;4.20;;
76574;SDS011;65439;50.948;6.988;2023-08-06T02:51:32;6.17;;;4.30;;
76574;SDS011;65439;50.948;6.988;2023-08-06T02:53:57;5.23;;;4.10;;
76574;SDS011;65439;50.948;6.988;2023-08-06T02:56:22;5.40;;;4.10;;
76574;SDS011;65439;50.948;6.988;2023-08-06T02:58:48;6.32;;;4.28;;
76574;SDS011;65439;50.948;6.988;2023-08-06T03:01:13;5.38;;;4.45;;
76574;SDS011;65439;50.948;6.988;2023-08-06T03:03:39;7.75;;;5.15;;
76574;SDS011;65439;50.948;6.988;2023-08-06T03:06:04;6.25;;;4.55;;
76574;SDS011;65439;50.948;6.988;2023-08-06T03:08:29;5.70;;;4.18;;
76574;SDS011;65439;50.948;6.988;2023-08-06T03:10:55;4.80;;;4.30;;
76574;SDS011;65439;50.948;6.988;2023-08-06T03:13:20;4.82;;;4.32;;
76574;SDS011;65439;50.948;6.988;2023-08-06T03:15:52;6.60;;;4.50;;
76574;SDS011;65439;50.948;6.988;2023-08-06T03:18:19;7.53;;;4.43;;
76574;SDS011;65439;50.948;6.988;2023-08-06T03:20:44;6.75;;;4.85;;
76574;SDS011;65439;50.948;6.988;2023-08-06T03:23:10;7.68;;;4.63;;
76574;SDS011;65439;50.948;6.988;2023-08-06T03:25:35;5.17;;;3.93;;
76574;SDS011;65439;50.948;6.988;2023-08-06T03:30:26;5.87;;;4.00;;
76574;SDS011;65439;50.948;6.988;2023-08-06T03:32:52;7.80;;;4.67;;
76574;SDS011;65439;50.948;6.988;2023-08-06T03:35:17;9.67;;;4.63;;
76574;SDS011;65439;50.948;6.988;2023-08-06T03:37:42;5.17;;;4.60;;
76574;SDS011;65439;50.948;6.988;2023-08-06T03:40:08;6.03;;;4.23;;
76574;SDS011;65439;50.948;6.988;2023-08-06T03:42:34;5.93;;;4.95;;
76574;SDS011;65439;50.948;6.988;2023-08-06T03:44:59;5.80;;;4.07;;
76574;SDS011;65439;50.948;6.988;2023-08-06T03:47:24;7.17;;;4.60;;
76574;SDS011;65439;50.948;6.988;2023-08-06T03:49:50;5.82;;;4.80;;
76574;SDS011;65439;50.948;6.988;2023-08-06T03:52:15;7.00;;;5.23;;
76574;SDS011;65439;50.948;6.988;2023-08-06T03:54:40;7.37;;;5.33;;
76574;SDS011;65439;50.948;6.988;2023-08-06T03:57:08;6.13;;;4.47;;
76574;SDS011;65439;50.948;6.988;2023-08-06T03:59:33;7.33;;;3.83;;
76574;SDS011;65439;50.948;6.988;2023-08-06T04:01:58;7.07;;;4.30;;
76574;SDS011;65439;50.948;6.988;2023-08-06T04:04:23;7.00;;;4.73;;
76574;SDS011;65439;50.948;6.988;2023-08-06T04:06:49;7.70;;;4.50;;
76574;SDS011;65439;50.948;6.988;2023-08-06T04:09:14;7.27;;;5.10;;
76574;SDS011;65439;50.948;6.988;2023-08-06T04:11:39;6.57;;;4.93;;
76574;SDS011;65439;50.948;6.988;2023-08-06T04:14:05;4.97;;;4.07;;
76574;SDS011;65439;50.948;6.988;2023-08-06T04:16:30;5.00;;;3.90;;
76574;SDS011;65439;50.948;6.988;2023-08-06T04:18:55;5.97;;;4.07;;
76574;SDS011;65439;50.948;6.988;2023-08-06T04:21:20;5.97;;;4.17;;
76574;SDS011;65439;50.948;6.988;2023-08-06T04:23:46;6.33;;;4.50;;
76574;SDS011;65439;50.948;6.988;2023-08-06T04:26:11;5.00;;;3.70;;
76574;SDS011;65439;50.948;6.988;2023-08-06T04:28:36;5.00;;;3.83;;
76574;SDS011;65439;50.948;6.988;2023-08-06T04:31:02;7.70;;;3.97;;
76574;SDS011;65439;50.948;6.988;2023-08-06T04:33:27;9.03;;;5.17;;
76574;SDS011;65439;50.948;6.988;2023-08-06T04:35:55;8.20;;;4.70;;
76574;SDS011;65439;50.948;6.988;2023-08-06T04:38:20;7.65;;;5.13;;
76574;SDS011;65439;50.948;6.988;2023-08-06T04:40:47;11.55;;;4.35;;
76574;SDS011;65439;50.948;6.988;2023-08-06T04:43:13;5.27;;;4.50;;
76574;SDS011;65439;50.948;6.988;2023-08-06T04:45:38;8.03;;;4.03;;
76574;SDS011;65439;50.948;6.988;2023-08-06T04:48:03;7.88;;;4.05;;
76574;SDS011;65439;50.948;6.988;2023-08-06T04:50:29;6.90;;;4.70;;
76574;SDS011;65439;50.948;6.988;2023-08-06T04:52:54;6.13;;;4.60;;
76574;SDS011;65439;50.948;6.988;2023-08-06T04:55:20;7.88;;;4.70;;
76574;SDS011;65439;50.948;6.988;2023-08-06T04:57:45;5.40;;;4.77;;
76574;SDS011;65439;50.948;6.988;2023-08-06T05:00:11;6.70;;;4.60;;
76574;SDS011;65439;50.948;6.988;2023-08-06T05:02:36;6.80;;;4.45;;
76574;SDS011;65439;50.948;6.988;2023-08-06T05:05:03;8.32;;;5.35;;
76574;SDS011;65439;50.948;6.988;2023-08-06T05:07:29;8.27;;;4.32;;
76574;SDS011;65439;50.948;6.988;2023-08-06T05:09:54;6.17;;;4.40;;
76574;SDS011;65439;50.948;6.988;2023-08-06T05:12:19;5.23;;;4.67;;
76574;SDS011;65439;50.948;6.988;2023-08-06T05:14:45;5.53;;;4.70;;
76574;SDS011;65439;50.948;6.988;2023-08-06T05:17:10;10.18;;;5.03;;
76574;SDS011;65439;50.948;6.988;2023-08-06T05:19:35;9.73;;;4.57;;
76574;SDS011;65439;50.948;6.988;2023-08-06T05:22:01;9.90;;;4.93;;
76574;SDS011;65439;50.948;6.988;2023-08-06T05:24:27;8.93;;;5.38;;
76574;SDS011;65439;50.948;6.988;2023-08-06T05:26:52;5.00;;;4.50;;
76574;SDS011;65439;50.948;6.988;2023-08-06T05:29:17;7.97;;;5.07;;
76574;SDS011;65439;50.948;6.988;2023-08-06T05:31:43;7.30;;;4.67;;
76574;SDS011;65439;50.948;6.988;2023-08-06T05:34:08;6.95;;;4.63;;
76574;SDS011;65439;50.948;6.988;2023-08-06T05:36:34;9.07;;;4.47;;
76574;SDS011;65439;50.948;6.988;2023-08-06T05:38:59;6.27;;;3.90;;
76574;SDS011;65439;50.948;6.988;2023-08-06T05:41:24;6.00;;;4.60;;
76574;SDS011;65439;50.948;6.988;2023-08-06T05:43:49;10.67;;;4.43;;
76574;SDS011;65439;50.948;6.988;2023-08-06T05:46:15;6.63;;;5.00;;
76574;SDS011;65439;50.948;6.988;2023-08-06T05:48:40;8.38;;;5.20;;
76574;SDS011;65439;50.948;6.988;2023-08-06T05:51:05;7.10;;;4.70;;
76574;SDS011;65439;50.948;6.988;2023-08-06T05:53:31;6.55;;;4.22;;
76574;SDS011;65439;50.948;6.988;2023-08-06T05:55:56;6.27;;;4.00;;
76574;SDS011;65439;50.948;6.988;2023-08-06T05:58:21;5.03;;;3.90;;
76574;SDS011;65439;50.948;6.988;2023-08-06T06:00:49;5.68;;;4.50;;
76574;SDS011;65439;50.948;6.988;2023-08-06T06:03:14;6.13;;;4.13;;
76574;SDS011;65439;50.948;6.988;2023-08-06T06:05:39;6.00;;;3.77;;
76574;SDS011;65439;50.948;6.988;2023-08-06T06:08:05;7.22;;;4.07;;
76574;SDS011;65439;50.948;6.988;2023-08-06T06:10:30;5.57;;;3.80;;
76574;SDS011;65439;50.948;6.988;2023-08-06T06:12:56;7.07;;;5.33;;
76574;SDS011;65439;50.948;6.988;2023-08-06T06:15:21;8.95;;;4.35;;
76574;SDS011;65439;50.948;6.988;2023-08-06T06:17:46;7.23;;;4.53;;
76574;SDS011;65439;50.948;6.988;2023-08-06T06:20:11;6.37;;;5.13;;
76574;SDS011;65439;50.948;6.988;2023-08-06T06:22:37;5.23;;;4.10;;
76574;SDS011;65439;50.948;6.988;2023-08-06T06:25:02;6.33;;;3.97;;
76574;SDS011;65439;50.948;6.988;2023-08-06T06:27:28;4.63;;;3.92;;
76574;SDS011;65439;50.948;6.988;2023-08-06T06:29:53;4.43;;;3.90;;
76574;SDS011;65439;50.948;6.988;2023-08-06T06:32:19;4.50;;;4.00;;
76574;SDS011;65439;50.948;6.988;2023-08-06T06:34:45;6.95;;;4.10;;
76574;SDS011;65439;50.948;6.988;2023-08-06T06:37:10;5.83;;;3.90;;
76574;SDS011;65439;50.948;6.988;2023-08-06T06:39:36;4.83;;;3.50;;
76574;SDS011;65439;50.948;6.988;2023-08-06T06:42:01;5.30;;;4.18;;
76574;SDS011;65439;50.948;6.988;2023-08-06T06:44:26;4.67;;;3.27;;
76574;SDS011;65439;50.948;6.988;2023-08-06T06:46:51;4.67;;;3.00;;
76574;SDS011;65439;50.948;6.988;2023-08-06T06:49:17;4.97;;;3.10;;
76574;SDS011;65439;50.948;6.988;2023-08-06T06:51:42;6.60;;;3.25;;
76574;SDS011;65439;50.948;6.988;2023-08-06T06:54:07;5.47;;;2.83;;
76574;SDS011;65439;50.948;6.988;2023-08-06T06:56:33;4.78;;;2.55;;
76574;SDS011;65439;50.948;6.988;2023-08-06T06:58:58;4.60;;;3.10;;
76574;SDS011;65439;50.948;6.988;2023-08-06T07:01:23;3.27;;;2.30;;
76574;SDS011;65439;50.948;6.988;2023-08-06T07:03:49;3.27;;;2.63;;
76574;SDS011;65439;50.948;6.988;2023-08-06T07:06:14;2.97;;;2.60;;
76574;SDS011;65439;50.948;6.988;2023-08-06T07:08:40;3.40;;;2.25;;
76574;SDS011;65439;50.948;6.988;2023-08-06T07:11:06;4.13;;;2.57;;
76574;SDS011;65439;50.948;6.988;2023-08-06T07:13:32;5.90;;;2.45;;
76574;SDS011;65439;50.948;6.988;2023-08-06T07:15:58;3.50;;;2.30;;
76574;SDS011;65439;50.948;6.988;2023-08-06T07:18:24;5.07;;;2.37;;
76574;SDS011;65439;50.948;6.988;2023-08-06T07:20:53;4.35;;;2.55;;
76574;SDS011;65439;50.948;6.988;2023-08-06T07:23:20;2.60;;;2.00;;
76574;SDS011;65439;50.948;6.988;2023-08-06T07:25:46;3.92;;;2.53;;
76574;SDS011;65439;50.948;6.988;2023-08-06T07:28:12;3.63;;;2.22;;
76574;SDS011;65439;50.948;6.988;2023-08-06T07:30:38;4.20;;;2.05;;
76574;SDS011;65439;50.948;6.988;2023-08-06T07:33:04;3.17;;;2.53;;
76574;SDS011;65439;50.948;6.988;2023-08-06T07:35:29;2.73;;;2.17;;
76574;SDS011;65439;50.948;6.988;2023-08-06T07:37:54;3.60;;;2.20;;
76574;SDS011;65439;50.948;6.988;2023-08-06T07:40:20;2.80;;;2.17;;
76574;SDS011;65439;50.948;6.988;2023-08-06T07:42:45;4.73;;;2.50;;
76574;SDS011;65439;50.948;6.988;2023-08-06T07:45:10;3.95;;;2.20;;
76574;SDS011;65439;50.948;6.988;2023-08-06T07:47:36;2.33;;;2.13;;
76574;SDS011;65439;50.948;6.988;2023-08-06T07:50:01;3.87;;;2.70;;
76574;SDS011;65439;50.948;6.988;2023-08-06T07:52:26;4.30;;;3.15;;
76574;SDS011;65439;50.948;6.988;2023-08-06T07:54:52;5.23;;;2.83;;
76574;SDS011;65439;50.948;6.988;2023-08-06T07:57:17;3.73;;;2.67;;
76574;SDS011;65439;50.948;6.988;2023-08-06T07:59:42;4.03;;;2.90;;
76574;SDS011;65439;50.948;6.988;2023-08-06T08:02:08;3.47;;;2.47;;
76574;SDS011;65439;50.948;6.988;2023-08-06T08:04:33;3.40;;;2.33;;
76574;SDS011;65439;50.948;6.988;2023-08-06T08:06:58;3.70;;;2.47;;
76574;SDS011;65439;50.948;6.988;2023-08-06T08:09:23;2.87;;;2.40;;
76574;SDS011;65439;50.948;6.988;2023-08-06T08:11:49;2.57;;;1.97;;
76574;SDS011;65439;50.948;6.988;2023-08-06T08:14:15;2.70;;;2.25;;
76574;SDS011;65439;50.948;6.988;2023-08-06T08:16:40;3.47;;;2.47;;
76574;SDS011;65439;50.948;6.988;2023-08-06T08:19:06;3.47;;;2.60;;
76574;SDS011;65439;50.948;6.988;2023-08-06T08:21:31;1.87;;;1.57;;
76574;SDS011;65439;50.948;6.988;2023-08-06T08:23:56;3.43;;;2.53;;
76574;SDS011;65439;50.948;6.988;2023-08-06T08:26:23;3.85;;;2.50;;
76574;SDS011;65439;50.948;6.988;2023-08-06T08:28:49;2.67;;;2.10;;
76574;SDS011;65439;50.948;6.988;2023-08-06T08:31:14;2.67;;;2.20;;
76574;SDS011;65439;50.948;6.988;2023-08-06T08:33:41;2.90;;;2.20;;
76574;SDS011;65439;50.948;6.988;2023-08-06T08:36:06;2.90;;;2.20;;
76574;SDS011;65439;50.948;6.988;2023-08-06T08:38:32;3.43;;;3.13;;
76574;SDS011;65439;50.948;6.988;2023-08-06T08:40:57;4.97;;;2.40;;
76574;SDS011;65439;50.948;6.988;2023-08-06T08:43:23;2.83;;;2.10;;
76574;SDS011;65439;50.948;6.988;2023-08-06T08:45:51;2.83;;;2.60;;
76574;SDS011;65439;50.948;6.988;2023-08-06T08:48:19;3.95;;;2.42;;
76574;SDS011;65439;50.948;6.988;2023-08-06T08:50:45;3.47;;;2.30;;
76574;SDS011;65439;50.948;6.988;2023-08-06T08:53:15;3.05;;;2.28;;
76574;SDS011;65439;50.948;6.988;2023-08-06T08:55:42;2.67;;;2.20;;
76574;SDS011;65439;50.948;6.988;2023-08-06T08:58:09;2.30;;;1.92;;
76574;SDS011;65439;50.948;6.988;2023-08-06T09:00:35;3.97;;;2.38;;
76574;SDS011;65439;50.948;6.988;2023-08-06T09:03:00;3.72;;;2.40;;
76574;SDS011;65439;50.948;6.988;2023-08-06T09:05:28;2.95;;;2.20;;
76574;SDS011;65439;50.948;6.988;2023-08-06T09:07:53;3.10;;;2.47;;
76574;SDS011;65439;50.948;6.988;2023-08-06T09:10:19;2.80;;;2.60;;
76574;SDS011;65439;50.948;6.988;2023-08-06T09:12:49;2.08;;;1.88;;
76574;SDS011;65439;50.948;6.988;2023-08-06T09:15:16;2.60;;;2.00;;
76574;SDS011;65439;50.948;6.988;2023-08-06T09:17:41;2.85;;;2.25;;
76574;SDS011;65439;50.948;6.988;2023-08-06T09:20:13;2.50;;;2.27;;
76574;SDS011;65439;50.948;6.988;2023-08-06T09:22:39;5.22;;;2.85;;
76574;SDS011;65439;50.948;6.988;2023-08-06T09:25:05;3.50;;;2.60;;
76574;SDS011;65439;50.948;6.988;2023-08-06T09:27:34;3.53;;;2.55;;
76574;SDS011;65439;50.948;6.988;2023-08-06T09:30:01;9.43;;;3.53;;
76574;SDS011;65439;50.948;6.988;2023-08-06T09:32:27;6.47;;;5.47;;
76574;SDS011;65439;50.948;6.988;2023-08-06T09:34:56;8.63;;;5.80;;
76574;SDS011;65439;50.948;6.988;2023-08-06T09:37:22;6.68;;;5.45;;
76574;SDS011;65439;50.948;6.988;2023-08-06T09:39:47;7.03;;;5.93;;
76574;SDS011;65439;50.948;6.988;2023-08-06T09:42:14;8.48;;;6.45;;
76574;SDS011;65439;50.948;6.988;2023-08-06T09:44:40;9.90;;;6.65;;
76574;SDS011;65439;50.948;6.988;2023-08-06T09:47:05;8.27;;;6.53;;
76574;SDS011;65439;50.948;6.988;2023-08-06T09:51:59;10.82;;;7.30;;
76574;SDS011;65439;50.948;6.988;2023-08-06T09:54:25;7.32;;;6.35;;
76574;SDS011;65439;50.948;6.988;2023-08-06T09:56:52;6.95;;;6.25;;
76574;SDS011;65439;50.948;6.988;2023-08-06T09:59:20;10.15;;;7.25;;
76574;SDS011;65439;50.948;6.988;2023-08-06T10:01:46;8.07;;;6.55;;
76574;SDS011;65439;50.948;6.988;2023-08-06T10:04:12;13.40;;;6.47;;
76574;SDS011;65439;50.948;6.988;2023-08-06T10:06:40;7.80;;;6.60;;
76574;SDS011;65439;50.948;6.988;2023-08-06T10:09:07;7.57;;;5.88;;
76574;SDS011;65439;50.948;6.988;2023-08-06T10:11:33;8.60;;;5.88;;
76574;SDS011;65439;50.948;6.988;2023-08-06T10:14:10;6.10;;;4.83;;
76574;SDS011;65439;50.948;6.988;2023-08-06T10:16:37;4.45;;;3.00;;
76574;SDS011;65439;50.948;6.988;2023-08-06T10:19:04;4.40;;;3.63;;
76574;SDS011;65439;50.948;6.988;2023-08-06T10:21:30;4.25;;;2.80;;
76574;SDS011;65439;50.948;6.988;2023-08-06T10:23:57;4.55;;;2.80;;
76574;SDS011;65439;50.948;6.988;2023-08-06T10:26:26;3.38;;;2.72;;
76574;SDS011;65439;50.948;6.988;2023-08-06T10:28:52;3.67;;;2.75;;
76574;SDS011;65439;50.948;6.988;2023-08-06T10:31:18;4.47;;;3.00;;
76574;SDS011;65439;50.948;6.988;2023-08-06T10:33:47;2.97;;;2.33;;
76574;SDS011;65439;50.948;6.988;2023-08-06T10:36:13;5.47;;;1.80;;
76574;SDS011;65439;50.948;6.988;2023-08-06T10:41:29;3.25;;;2.00;;
76574;SDS011;65439;50.948;6.988;2023-08-06T10:44:07;2.35;;;1.50;;
76574;SDS011;65439;50.948;6.988;2023-08-06T10:46:36;3.20;;;1.70;;
76574;SDS011;65439;50.948;6.988;2023-08-06T10:49:02;2.40;;;2.05;;
76574;SDS011;65439;50.948;6.988;2023-08-06T10:51:28;3.13;;;2.20;;
76574;SDS011;65439;50.948;6.988;2023-08-06T10:53:54;3.58;;;2.45;;
76574;SDS011;65439;50.948;6.988;2023-08-06T10:56:20;3.50;;;2.50;;
76574;SDS011;65439;50.948;6.988;2023-08-06T10:58:49;5.35;;;3.35;;
76574;SDS011;65439;50.948;6.988;2023-08-06T11:01:15;3.72;;;3.30;;
76574;SDS011;65439;50.948;6.988;2023-08-06T11:03:41;3.03;;;2.72;;
76574;SDS011;65439;50.948;6.988;2023-08-06T11:06:07;3.85;;;3.45;;
76574;SDS011;65439;50.948;6.988;2023-08-06T11:08:33;5.63;;;3.72;;
76574;SDS011;65439;50.948;6.988;2023-08-06T11:11:13;4.32;;;3.35;;
76574;SDS011;65439;50.948;6.988;2023-08-06T11:13:42;5.57;;;4.65;;
76574;SDS011;65439;50.948;6.988;2023-08-06T11:16:09;5.18;;;3.78;;
76574;SDS011;65439;50.948;6.988;2023-08-06T11:18:35;4.70;;;4.13;;
76574;SDS011;65439;50.948;6.988;2023-08-06T11:21:00;10.68;;;4.75;;
76574;SDS011;65439;50.948;6.988;2023-08-06T11:23:27;4.53;;;4.07;;
76574;SDS011;65439;50.948;6.988;2023-08-06T11:25:53;6.55;;;4.35;;
76574;SDS011;65439;50.948;6.988;2023-08-06T11:28:19;6.18;;;4.13;;
76574;SDS011;65439;50.948;6.988;2023-08-06T11:30:46;5.20;;;3.58;;
76574;SDS011;65439;50.948;6.988;2023-08-06T11:33:12;5.13;;;3.85;;
76574;SDS011;65439;50.948;6.988;2023-08-06T11:35:37;5.23;;;4.20;;
76574;SDS011;65439;50.948;6.988;2023-08-06T11:38:03;6.97;;;4.32;;
76574;SDS011;65439;50.948;6.988;2023-08-06T11:40:28;4.47;;;3.45;;
76574;SDS011;65439;50.948;6.988;2023-08-06T11:42:53;4.20;;;3.53;;
76574;SDS011;65439;50.948;6.988;2023-08-06T11:45:22;5.53;;;3.30;;
76574;SDS011;65439;50.948;6.988;2023-08-06T11:47:50;4.88;;;3.15;;
76574;SDS011;65439;50.948;6.988;2023-08-06T11:50:26;5.20;;;3.65;;
76574;SDS011;65439;50.948;6.988;2023-08-06T11:52:59;6.75;;;3.17;;
76574;SDS011;65439;50.948;6.988;2023-08-06T11:55:25;4.95;;;2.75;;
76574;SDS011;65439;50.948;6.988;2023-08-06T11:57:51;4.22;;;3.38;;
76574;SDS011;65439;50.948;6.988;2023-08-06T12:00:17;5.18;;;2.78;;
76574;SDS011;65439;50.948;6.988;2023-08-06T12:02:45;6.32;;;3.20;;
76574;SDS011;65439;50.948;6.988;2023-08-06T12:05:11;6.05;;;2.80;;
76574;SDS011;65439;50.948;6.988;2023-08-06T12:07:38;7.47;;;2.50;;
76574;SDS011;65439;50.948;6.988;2023-08-06T12:10:05;5.20;;;2.78;;
76574;SDS011;65439;50.948;6.988;2023-08-06T12:12:30;10.70;;;3.50;;
76574;SDS011;65439;50.948;6.988;2023-08-06T12:14:56;4.53;;;2.55;;
76574;SDS011;65439;50.948;6.988;2023-08-06T12:17:22;5.88;;;2.58;;
76574;SDS011;65439;50.948;6.988;2023-08-06T12:22:13;8.07;;;3.38;;
76574;SDS011;65439;50.948;6.988;2023-08-06T12:24:40;3.83;;;2.60;;
76574;SDS011;65439;50.948;6.988;2023-08-06T12:27:06;4.45;;;2.40;;
76574;SDS011;65439;50.948;6.988;2023-08-06T12:29:32;3.33;;;2.58;;
76574;SDS011;65439;50.948;6.988;2023-08-06T12:31:57;3.30;;;2.37;;
76574;SDS011;65439;50.948;6.988;2023-08-06T12:34:22;2.60;;;2.30;;
76574;SDS011;65439;50.948;6.988;2023-08-06T12:36:48;4.40;;;3.30;;
76574;SDS011;65439;50.948;6.988;2023-08-06T12:39:13;5.50;;;3.00;;
76574;SDS011;65439;50.948;6.988;2023-08-06T12:41:38;6.20;;;2.90;;
76574;SDS011;65439;50.948;6.988;2023-08-06T12:44:03;6.13;;;4.23;;
76574;SDS011;65439;50.948;6.988;2023-08-06T12:46:29;7.50;;;3.77;;
76574;SDS011;65439;50.948;6.988;2023-08-06T12:48:55;6.95;;;3.33;;
76574;SDS011;65439;50.948;6.988;2023-08-06T12:51:22;5.45;;;2.83;;
76574;SDS011;65439;50.948;6.988;2023-08-06T12:53:47;5.07;;;3.40;;
76574;SDS011;65439;50.948;6.988;2023-08-06T12:56:12;5.23;;;3.20;;
76574;SDS011;65439;50.948;6.988;2023-08-06T12:58:38;3.90;;;2.10;;
76574;SDS011;65439;50.948;6.988;2023-08-06T13:01:04;5.53;;;3.58;;
76574;SDS011;65439;50.948;6.988;2023-08-06T13:03:30;5.80;;;4.10;;
76574;SDS011;65439;50.948;6.988;2023-08-06T13:05:55;4.60;;;2.30;;
76574;SDS011;65439;50.948;6.988;2023-08-06T13:08:20;6.77;;;3.07;;
76574;SDS011;65439;50.948;6.988;2023-08-06T13:10:46;4.15;;;2.72;;
76574;SDS011;65439;50.948;6.988;2023-08-06T13:13:11;4.63;;;3.08;;
76574;SDS011;65439;50.948;6.988;2023-08-06T13:15:36;5.00;;;2.90;;
76574;SDS011;65439;50.948;6.988;2023-08-06T13:18:02;4.23;;;2.60;;
76574;SDS011;65439;50.948;6.988;2023-08-06T13:20:29;5.15;;;3.10;;
76574;SDS011;65439;50.948;6.988;2023-08-06T13:22:55;5.72;;;2.45;;
76574;SDS011;65439;50.948;6.988;2023-08-06T13:25:20;5.07;;;2.60;;
76574;SDS011;65439;50.948;6.988;2023-08-06T13:27:46;4.40;;;3.67;;
76574;SDS011;65439;50.948;6.988;2023-08-06T13:30:12;4.95;;;3.17;;
76574;SDS011;65439;50.948;6.988;2023-08-06T13:32:37;4.13;;;3.07;;
76574;SDS011;65439;50.948;6.988;2023-08-06T13:35:04;5.77;;;3.03;;
76574;SDS011;65439;50.948;6.988;2023-08-06T13:37:29;4.10;;;2.92;;
76574;SDS011;65439;50.948;6.988;2023-08-06T13:39:55;8.97;;;3.43;;
76574;SDS011;65439;50.948;6.988;2023-08-06T13:42:20;7.63;;;3.63;;
76574;SDS011;65439;50.948;6.988;2023-08-06T13:44:45;5.60;;;4.00;;
76574;SDS011;65439;50.948;6.988;2023-08-06T13:47:10;7.20;;;4.30;;
76574;SDS011;65439;50.948;6.988;2023-08-06T13:49:36;4.50;;;3.70;;
76574;SDS011;65439;50.948;6.988;2023-08-06T13:52:01;5.70;;;3.70;;
76574;SDS011;65439;50.948;6.988;2023-08-06T13:54:26;5.60;;;3.93;;
76574;SDS011;65439;50.948;6.988;2023-08-06T13:56:52;5.37;;;3.93;;
76574;SDS011;65439;50.948;6.988;2023-08-06T13:59:18;7.85;;;4.13;;
76574;SDS011;65439;50.948;6.988;2023-08-06T14:01:44;6.35;;;4.97;;
76574;SDS011;65439;50.948;6.988;2023-08-06T14:04:10;6.85;;;4.70;;
76574;SDS011;65439;50.948;6.988;2023-08-06T14:06:35;5.63;;;4.88;;
76574;SDS011;65439;50.948;6.988;2023-08-06T14:09:00;4.73;;;4.30;;
76574;SDS011;65439;50.948;6.988;2023-08-06T14:11:26;5.40;;;4.53;;
76574;SDS011;65439;50.948;6.988;2023-08-06T14:13:51;5.63;;;4.90;;
76574;SDS011;65439;50.948;6.988;2023-08-06T14:16:16;4.90;;;4.43;;
76574;SDS011;65439;50.948;6.988;2023-08-06T14:18:42;4.63;;;3.37;;
76574;SDS011;65439;50.948;6.988;2023-08-06T14:21:07;6.70;;;4.50;;
76574;SDS011;65439;50.948;6.988;2023-08-06T14:23:33;7.68;;;3.88;;
76574;SDS011;65439;50.948;6.988;2023-08-06T14:25:58;9.77;;;3.23;;
76574;SDS011;65439;50.948;6.988;2023-08-06T14:28:23;8.17;;;3.07;;
76574;SDS011;65439;50.948;6.988;2023-08-06T14:30:49;6.57;;;2.30;;
76574;SDS011;65439;50.948;6.988;2023-08-06T14:33:14;4.80;;;4.40;;
76574;SDS011;65439;50.948;6.988;2023-08-06T14:35:39;5.77;;;2.20;;
76574;SDS011;65439;50.948;6.988;2023-08-06T14:38:05;4.50;;;3.13;;
76574;SDS011;65439;50.948;6.988;2023-08-06T14:40:30;5.05;;;2.53;;
76574;SDS011;65439;50.948;6.988;2023-08-06T14:43:00;3.58;;;2.53;;
76574;SDS011;65439;50.948;6.988;2023-08-06T14:45:26;5.30;;;2.22;;
76574;SDS011;65439;50.948;6.988;2023-08-06T14:47:51;4.83;;;2.30;;
76574;SDS011;65439;50.948;6.988;2023-08-06T14:50:17;4.97;;;2.72;;
76574;SDS011;65439;50.948;6.988;2023-08-06T14:52:42;4.33;;;3.87;;